Huvudsida
METAR-TAF:

METAR-TAF

Flygplatser :

Johannesburg, Sydafrika

latitud: 26-09S, longitud: 28-00E, höjd: 1626 m

Aktuellt väderrapport

Denna rapport gjordes för 45 minuter sedan, klockan 22:00 UTC
Stilla vind
Temperatur 9°C
Fuktighet 66%
Tryck 1028 hPa

METAR: FAJB 252200Z AUTO 00000KT //// // ////// 09/03 Q1028

Tid: 00:45 (22:45 UTC)


TAF: saknas

Aktuella väderrapporter och prognoser från 4000 flygplatser (METAR- och TAF-rapporter).

De tillgängliga stationerna syns som gula och röda prickar på kartan.

För musen över prickarna för att se namnen på stationerna.

Klicka sedan för att få väderrapporter och prognoser.

För att ändra kartan: Klicka på de gröna knapparna med ett svart kors på för att zooma in; den gröna knappen med ett streck på för att zooma ut; eller på de gröna pilarna för angränsande kartor.


METAR-TAF: